KCAE/CAE METAR and TAF weather

Enter ICAO airport designator
Station Type Date Time Source
KCAE METAR 2019/08/24 19:56 UTC NOAA

KCAE 241956Z 01010G16KT 10SM FEW029 BKN038 BKN070 BKN250 28/23 A3001 RMK AO2 SLP158 T02780233


Station Type Date Time Source
KCAE Decoded METAR 2019/08/24 19:56 UTC NOAA

Station name not available
Aug 24, 2019 - 03:56 PM EDT / 2019.08.24 1956 UTC
Wind: from the N (010 degrees) at 12 MPH (10 KT) gusting to 18 MPH (16 KT):0
Visibility: 10 mile(s):0
Sky conditions: mostly cloudy
Temperature: 82.0 F (27.8 C)
Dew Point: 73.9 F (23.3 C)
Relative Humidity: 76%
Pressure (altimeter): 30.01 in. Hg (1016 hPa)
ob: KCAE 241956Z 01010G16KT 10SM FEW029 BKN038 BKN070 BKN250 28/23 A3001 RMK AO2 SLP158 T02780233
cycle: 20

Station Type Date Time Source
KCAE TAF 2019/08/24 20:34 UTC NOAA

TAF
AMD KCAE 241932Z 2420/2518 04008KT P6SM VCSH SCT025 BKN035
FM242100 04010KT P6SM BKN015
FM250400 05008KT P6SM OVC007
FM251600 04008KT P6SM OVC020

Example: see airport list